createdAt,value
2022-12-25T00:00:57.304Z,97.40
2022-12-25T00:02:05.774Z,97.40
2022-12-25T00:02:57.338Z,97.40
2022-12-25T00:03:57.428Z,97.50
2022-12-25T00:05:05.904Z,97.50
2022-12-25T00:05:57.183Z,97.50
2022-12-25T00:07:04.715Z,97.40
2022-12-25T00:07:57.172Z,97.40
2022-12-25T00:08:57.179Z,97.40
2022-12-25T00:09:57.116Z,97.40
2022-12-25T00:10:57.139Z,97.40
2022-12-25T00:12:04.638Z,97.30
2022-12-25T00:12:57.121Z,97.40
2022-12-25T00:13:57.073Z,97.40
2022-12-25T00:14:57.067Z,97.30
2022-12-25T00:15:57.117Z,97.30
2022-12-25T00:16:57.092Z,97.30
2022-12-25T00:17:57.054Z,97.30
2022-12-25T00:18:57.007Z,97.30
2022-12-25T00:19:57.039Z,97.30
2022-12-25T00:20:57.000Z,97.30
2022-12-25T00:21:56.992Z,97.30
2022-12-25T00:22:56.969Z,97.30
2022-12-25T00:23:56.963Z,97.30
2022-12-25T00:24:56.954Z,97.19
2022-12-25T00:25:56.918Z,97.19
2022-12-25T00:26:56.920Z,97.19
2022-12-25T00:27:56.921Z,97.19
2022-12-25T00:28:56.935Z,97.19
2022-12-25T00:29:56.871Z,97.19
2022-12-25T00:30:56.909Z,97.19
2022-12-25T00:31:56.931Z,97.19
2022-12-25T00:32:56.875Z,97.19
2022-12-25T00:33:56.858Z,97.09
2022-12-25T00:34:56.825Z,97.09
2022-12-25T00:35:56.801Z,97.09
2022-12-25T00:36:56.815Z,97.09
2022-12-25T00:37:56.783Z,97.09
2022-12-25T00:38:56.743Z,97.09
2022-12-25T00:39:56.714Z,97.09
2022-12-25T00:41:05.251Z,97.09
2022-12-25T00:41:56.715Z,97.14
2022-12-25T00:42:56.695Z,97.09
2022-12-25T00:44:06.385Z,97.14
2022-12-25T00:44:56.670Z,97.09
2022-12-25T00:45:56.673Z,97.19
2022-12-25T00:46:56.698Z,97.24
2022-12-25T00:48:08.350Z,97.14
2022-12-25T00:49:04.132Z,97.14
2022-12-25T00:49:56.598Z,97.19
2022-12-25T00:50:56.584Z,97.19
2022-12-25T00:51:56.600Z,97.19
2022-12-25T00:52:56.559Z,97.19
2022-12-25T00:53:56.560Z,97.19
2022-12-25T00:55:04.045Z,97.19
2022-12-25T00:56:04.042Z,97.19
2022-12-25T00:57:04.032Z,97.19
2022-12-25T00:57:56.578Z,97.19
2022-12-25T00:58:56.508Z,97.19
2022-12-25T01:01:14.474Z,97.09
2022-12-25T01:02:21.835Z,97.09
2022-12-25T01:03:14.280Z,97.09
2022-12-25T01:04:14.230Z,97.09
2022-12-25T01:05:14.207Z,97.09
2022-12-25T01:06:14.204Z,97.09
2022-12-25T01:07:14.185Z,97.09
2022-12-25T01:08:21.683Z,97.09
2022-12-25T01:09:14.141Z,97.09
2022-12-25T01:10:14.150Z,97.09
2022-12-25T01:11:14.130Z,97.09
2022-12-25T01:12:14.113Z,97.09
2022-12-25T01:13:14.089Z,97.09
2022-12-25T01:14:14.117Z,97.09
2022-12-25T01:15:14.080Z,97.09
2022-12-25T01:16:21.610Z,97.09
2022-12-25T01:17:14.041Z,97.09
2022-12-25T01:18:14.048Z,97.09
2022-12-25T01:19:14.025Z,97.09
2022-12-25T01:20:14.045Z,97.09
2022-12-25T01:21:14.000Z,97.09
2022-12-25T01:22:14.001Z,97.09
2022-12-25T01:23:13.979Z,97.09
2022-12-25T01:24:13.987Z,97.09
2022-12-25T01:25:13.952Z,97.09
2022-12-25T01:26:21.450Z,97.09
2022-12-25T01:27:13.902Z,97.09
2022-12-25T01:28:13.937Z,97.09
2022-12-25T01:29:13.928Z,97.09
2022-12-25T01:30:22.559Z,96.99
2022-12-25T01:31:13.926Z,97.09
2022-12-25T01:32:13.904Z,97.09
2022-12-25T01:33:13.848Z,97.09
2022-12-25T01:34:13.873Z,97.09
2022-12-25T01:35:13.819Z,97.09
2022-12-25T01:36:13.808Z,96.99
2022-12-25T01:37:13.802Z,96.99
2022-12-25T01:38:13.776Z,96.99
2022-12-25T01:39:13.796Z,96.99
2022-12-25T01:40:13.761Z,96.99
2022-12-25T01:41:13.751Z,96.99
2022-12-25T01:42:13.751Z,96.99
2022-12-25T01:43:18.538Z,96.89
2022-12-25T01:44:14.759Z,96.89
2022-12-25T01:45:21.263Z,96.89
2022-12-25T01:46:13.768Z,96.89
2022-12-25T01:47:13.645Z,96.78
2022-12-25T01:48:13.662Z,96.78
2022-12-25T01:49:13.674Z,96.78
2022-12-25T01:50:13.634Z,96.78
2022-12-25T01:51:13.656Z,96.78
2022-12-25T01:52:14.913Z,96.78
2022-12-25T01:53:13.600Z,96.78
2022-12-25T01:54:13.606Z,96.68
2022-12-25T01:55:13.562Z,96.68
2022-12-25T01:56:13.552Z,96.68
2022-12-25T01:57:13.567Z,96.68
2022-12-25T01:58:13.532Z,96.68
2022-12-25T01:59:13.517Z,96.68
2022-12-25T02:00:13.493Z,96.68
2022-12-25T02:01:13.608Z,96.68
2022-12-25T02:02:13.581Z,96.68
2022-12-25T02:03:13.547Z,96.68
2022-12-25T02:04:13.468Z,96.68
2022-12-25T02:05:13.425Z,96.68
2022-12-25T02:06:13.434Z,96.68
2022-12-25T02:07:13.412Z,96.78
2022-12-25T02:08:13.399Z,96.78
2022-12-25T02:09:13.426Z,96.78
2022-12-25T02:10:13.364Z,96.78
2022-12-25T02:11:13.352Z,96.78
2022-12-25T02:12:13.373Z,96.78
2022-12-25T02:13:13.323Z,96.78
2022-12-25T02:14:13.344Z,96.78
2022-12-25T02:15:13.296Z,96.89
2022-12-25T02:16:13.359Z,96.89
2022-12-25T02:17:13.383Z,96.89
2022-12-25T02:18:13.257Z,96.93
2022-12-25T02:19:13.245Z,96.89
2022-12-25T02:20:13.245Z,96.89
2022-12-25T02:21:13.204Z,96.93
2022-12-25T02:22:13.226Z,96.89
2022-12-25T02:23:13.205Z,96.89
2022-12-25T02:24:13.207Z,96.89
2022-12-25T02:25:13.155Z,96.99
2022-12-25T02:26:13.172Z,96.99
2022-12-25T02:27:13.160Z,96.89
2022-12-25T02:28:13.137Z,96.89
2022-12-25T02:29:13.129Z,96.89
2022-12-25T02:30:13.127Z,96.89
2022-12-25T02:31:13.094Z,96.89
2022-12-25T02:32:13.253Z,96.78
2022-12-25T02:33:13.102Z,96.78
2022-12-25T02:34:13.046Z,96.78
2022-12-25T02:35:13.037Z,96.68
2022-12-25T02:36:13.058Z,96.68
2022-12-25T02:37:13.019Z,96.68
2022-12-25T02:38:12.993Z,96.68
2022-12-25T02:39:12.997Z,96.68
2022-12-25T02:40:12.996Z,96.58
2022-12-25T02:41:12.959Z,96.58
2022-12-25T02:42:12.963Z,96.58
2022-12-25T02:43:12.933Z,96.47
2022-12-25T02:44:12.968Z,96.47
2022-12-25T02:45:12.912Z,96.47
2022-12-25T02:46:12.946Z,96.47
2022-12-25T02:47:12.890Z,96.37
2022-12-25T02:48:12.879Z,96.37
2022-12-25T02:49:12.841Z,96.27
2022-12-25T02:50:12.851Z,96.27
2022-12-25T02:51:12.831Z,96.27
2022-12-25T02:52:12.815Z,96.27
2022-12-25T02:53:12.809Z,96.27
2022-12-25T02:54:12.805Z,96.27
2022-12-25T02:55:12.780Z,96.27
2022-12-25T02:56:12.754Z,96.17
2022-12-25T02:57:12.762Z,96.17
2022-12-25T02:58:12.721Z,96.06
2022-12-25T02:59:12.721Z,96.06
2022-12-25T03:00:12.731Z,96.06
2022-12-25T03:01:12.738Z,96.06
2022-12-25T03:02:12.765Z,96.06
2022-12-25T03:03:12.688Z,96.06
2022-12-25T03:04:12.654Z,95.96
2022-12-25T03:05:12.646Z,95.96
2022-12-25T03:06:12.642Z,96.06
2022-12-25T03:07:12.632Z,96.06
2022-12-25T03:08:12.596Z,96.06
2022-12-25T03:09:12.586Z,96.06
2022-12-25T03:10:12.591Z,96.06
2022-12-25T03:11:12.579Z,95.96
2022-12-25T03:12:12.563Z,96.06
2022-12-25T03:13:12.549Z,96.06
2022-12-25T03:14:12.553Z,96.06
2022-12-25T03:15:12.559Z,96.06
2022-12-25T03:16:12.492Z,96.06
2022-12-25T03:17:12.592Z,96.06
2022-12-25T03:18:12.484Z,96.17
2022-12-25T03:19:12.460Z,96.06
2022-12-25T03:20:12.453Z,96.06
2022-12-25T03:21:12.449Z,96.06
2022-12-25T03:22:12.419Z,96.00
2022-12-25T03:23:12.425Z,96.06
2022-12-25T03:24:12.403Z,96.11
2022-12-25T03:25:12.445Z,96.11
2022-12-25T03:26:12.368Z,96.11
2022-12-25T03:27:12.374Z,96.11
2022-12-25T03:28:12.375Z,96.11
2022-12-25T03:29:12.353Z,96.11
2022-12-25T03:30:12.341Z,96.21
2022-12-25T03:31:12.373Z,96.21
2022-12-25T03:32:12.299Z,96.31
2022-12-25T03:33:29.829Z,96.31
2022-12-25T03:34:13.268Z,96.31
2022-12-25T03:35:12.277Z,96.31
2022-12-25T03:36:12.236Z,96.36
2022-12-25T03:37:12.237Z,96.36
2022-12-25T03:38:12.225Z,96.36
2022-12-25T03:39:12.228Z,96.46
2022-12-25T03:40:12.201Z,96.46
2022-12-25T03:41:12.199Z,96.46
2022-12-25T03:42:12.149Z,96.50
2022-12-25T03:43:12.210Z,96.61
2022-12-25T03:44:12.141Z,96.61
2022-12-25T03:45:12.146Z,96.61
2022-12-25T03:46:12.130Z,96.71
2022-12-25T03:47:12.110Z,96.71
2022-12-25T03:48:12.154Z,96.81
2022-12-25T03:49:12.093Z,96.92
2022-12-25T04:03:11.374Z,97.31
2022-12-25T04:04:11.340Z,97.31
2022-12-25T04:05:11.251Z,97.31
2022-12-25T04:06:11.247Z,97.42
2022-12-25T04:07:11.229Z,97.42
2022-12-25T04:08:11.228Z,97.42
2022-12-25T04:09:11.209Z,97.42
2022-12-25T04:10:11.211Z,97.42
2022-12-25T04:11:11.193Z,97.52
2022-12-25T04:12:11.199Z,97.52
2022-12-25T04:13:11.161Z,97.52
2022-12-25T04:14:11.150Z,97.52
2022-12-25T04:15:11.131Z,97.63
2022-12-25T04:16:19.881Z,97.63
2022-12-25T04:17:11.099Z,97.63
2022-12-25T04:18:11.109Z,97.63
2022-12-25T04:19:11.128Z,97.63
2022-12-25T04:20:11.101Z,97.63
2022-12-25T04:21:11.100Z,97.67
2022-12-25T04:22:11.046Z,97.77
2022-12-25T04:23:11.021Z,97.67
2022-12-25T04:24:11.046Z,97.67
2022-12-25T04:25:11.042Z,97.77
2022-12-25T04:26:11.029Z,97.67
2022-12-25T04:27:10.972Z,97.67
2022-12-25T04:28:10.969Z,97.67
2022-12-25T04:29:10.995Z,97.77
2022-12-25T04:30:10.970Z,97.77
2022-12-25T04:31:11.060Z,97.77
2022-12-25T04:32:10.920Z,97.77
2022-12-25T04:33:10.910Z,97.77
2022-12-25T04:34:10.922Z,97.67
2022-12-25T04:35:10.932Z,97.72
2022-12-25T04:36:10.903Z,97.72
2022-12-25T04:37:10.908Z,97.72
2022-12-25T04:38:10.866Z,97.72
2022-12-25T04:39:10.849Z,97.72
2022-12-25T04:40:10.835Z,97.72
2022-12-25T04:41:10.848Z,97.76
2022-12-25T04:42:10.799Z,97.76
2022-12-25T04:43:10.783Z,97.76
2022-12-25T04:44:10.804Z,97.76
2022-12-25T04:45:10.788Z,97.76
2022-12-25T04:46:10.860Z,97.81
2022-12-25T04:47:11.794Z,97.81
2022-12-25T04:48:10.731Z,97.91
2022-12-25T04:49:10.723Z,97.81
2022-12-25T04:50:10.716Z,97.81
2022-12-25T04:51:10.729Z,97.91
2022-12-25T04:52:10.737Z,97.91
2022-12-25T04:53:10.658Z,97.91
2022-12-25T04:54:10.661Z,97.96
2022-12-25T04:55:10.640Z,97.96
2022-12-25T04:56:10.630Z,97.96
2022-12-25T04:57:10.637Z,97.96
2022-12-25T04:58:10.591Z,98.06
2022-12-25T04:59:10.597Z,97.96
2022-12-25T05:00:10.593Z,98.06
2022-12-25T05:01:10.579Z,98.06
2022-12-25T05:02:10.689Z,98.10
2022-12-25T05:03:10.650Z,98.21
2022-12-25T05:04:10.529Z,98.21
2022-12-25T05:05:10.514Z,98.31
2022-12-25T05:06:10.553Z,98.31
2022-12-25T05:07:10.495Z,98.31
2022-12-25T05:08:10.465Z,98.31
2022-12-25T05:09:10.458Z,98.31
2022-12-25T05:10:10.447Z,98.31
2022-12-25T05:11:10.477Z,98.31
2022-12-25T05:12:10.423Z,98.41
2022-12-25T05:13:10.415Z,98.41
2022-12-25T05:14:10.402Z,98.41
2022-12-25T05:15:10.360Z,98.41
2022-12-25T05:16:18.066Z,98.41
2022-12-25T05:17:10.414Z,98.41
2022-12-25T05:18:10.345Z,98.41
2022-12-25T05:19:10.316Z,98.41
2022-12-25T05:20:10.318Z,98.41
2022-12-25T05:21:10.295Z,98.41
2022-12-25T05:22:10.318Z,98.41
2022-12-25T05:23:10.333Z,98.41
2022-12-25T05:24:10.259Z,98.46
2022-12-25T05:25:10.237Z,98.46
2022-12-25T05:26:10.253Z,98.46
2022-12-25T05:27:10.238Z,98.46
2022-12-25T05:28:10.207Z,98.46
2022-12-25T05:29:10.879Z,98.46
2022-12-25T05:30:10.187Z,98.46
2022-12-25T05:31:10.168Z,98.40
2022-12-25T05:32:10.167Z,98.40
2022-12-25T05:33:10.135Z,98.40
2022-12-25T05:34:10.150Z,98.40
2022-12-25T05:35:10.109Z,98.40
2022-12-25T05:36:10.107Z,98.44
2022-12-25T05:37:10.111Z,98.44
2022-12-25T05:38:10.066Z,98.44
2022-12-25T05:39:10.039Z,98.44
2022-12-25T05:40:10.147Z,98.44
2022-12-25T05:41:10.053Z,98.44
2022-12-25T05:42:10.057Z,98.44
2022-12-25T05:43:10.013Z,98.55
2022-12-25T05:44:09.999Z,98.55
2022-12-25T05:45:09.978Z,98.44
2022-12-25T05:46:10.105Z,98.60
2022-12-25T05:47:10.057Z,98.60
2022-12-25T05:48:09.948Z,98.49
2022-12-25T05:49:09.952Z,98.60
2022-12-25T05:50:09.939Z,98.60
2022-12-25T05:51:09.924Z,98.60
2022-12-25T05:52:09.913Z,98.60
2022-12-25T05:53:09.909Z,98.60
2022-12-25T05:54:09.870Z,98.60
2022-12-25T05:55:09.870Z,98.60
2022-12-25T05:56:09.888Z,98.60
2022-12-25T05:57:09.846Z,98.70
2022-12-25T05:58:09.827Z,98.70
2022-12-25T05:59:09.832Z,98.70
2022-12-25T06:00:09.808Z,98.70
2022-12-25T06:01:09.779Z,98.75
2022-12-25T06:02:09.865Z,98.86
2022-12-25T06:03:09.901Z,98.96
2022-12-25T06:04:12.780Z,99.02
2022-12-25T06:05:09.746Z,99.02
2022-12-25T06:06:09.722Z,99.23
2022-12-25T06:07:09.728Z,99.29
2022-12-25T06:08:09.717Z,99.29
2022-12-25T06:09:09.690Z,99.34
2022-12-25T06:10:18.184Z,99.34
2022-12-25T06:11:09.685Z,99.55
2022-12-25T06:12:09.655Z,99.51
2022-12-25T06:13:09.626Z,99.51
2022-12-25T06:14:09.624Z,99.61
2022-12-25T06:15:09.613Z,99.61
2022-12-25T06:16:09.664Z,99.61
2022-12-25T06:17:09.585Z,99.56
2022-12-25T06:18:09.593Z,99.56
2022-12-25T06:19:09.551Z,99.56
2022-12-25T06:20:09.612Z,99.66
2022-12-25T06:21:09.517Z,99.66
2022-12-25T06:22:09.514Z,99.66
2022-12-25T06:23:09.539Z,99.62
2022-12-25T06:24:09.529Z,99.52
2022-12-25T06:25:17.282Z,99.52
2022-12-25T06:26:09.469Z,99.52
2022-12-25T06:27:09.432Z,99.41
2022-12-25T06:28:09.460Z,99.41
2022-12-25T06:29:09.410Z,99.41
2022-12-25T06:30:16.927Z,99.31
2022-12-25T06:31:09.577Z,99.21
2022-12-25T06:32:09.378Z,99.21
2022-12-25T06:33:09.358Z,99.21
2022-12-25T06:34:09.366Z,99.10
2022-12-25T06:35:09.343Z,99.00
2022-12-25T06:36:09.336Z,98.94
2022-12-25T06:37:09.330Z,98.84
2022-12-25T06:38:09.361Z,98.84
2022-12-25T06:39:09.279Z,98.74
2022-12-25T06:40:09.301Z,98.63
2022-12-25T06:41:09.264Z,98.63
2022-12-25T06:42:09.282Z,98.53
2022-12-25T06:43:09.259Z,98.53
2022-12-25T06:44:09.239Z,98.53
2022-12-25T06:45:09.221Z,98.53
2022-12-25T06:46:09.229Z,98.43
2022-12-25T06:47:09.215Z,98.43
2022-12-25T06:48:09.199Z,98.43
2022-12-25T06:49:09.178Z,98.43
2022-12-25T06:50:09.149Z,98.43
2022-12-25T06:51:09.144Z,98.43
2022-12-25T06:52:09.152Z,98.43
2022-12-25T06:53:09.126Z,98.43
2022-12-25T06:54:09.126Z,98.43
2022-12-25T06:55:09.102Z,98.43
2022-12-25T06:56:09.076Z,98.43
2022-12-25T06:57:09.071Z,98.43
2022-12-25T06:58:09.094Z,98.43
2022-12-25T06:59:09.043Z,98.32
2022-12-25T07:00:09.048Z,98.32
2022-12-25T07:01:09.086Z,98.32
2022-12-25T07:02:09.103Z,98.32
2022-12-25T07:03:09.051Z,98.32
2022-12-25T07:04:09.005Z,98.32
2022-12-25T07:05:08.951Z,98.32
2022-12-25T07:06:08.941Z,98.32
2022-12-25T07:07:09.588Z,98.32
2022-12-25T07:08:08.950Z,98.32
2022-12-25T07:09:08.932Z,98.32
2022-12-25T07:10:08.921Z,98.32
2022-12-25T07:11:08.880Z,98.28
2022-12-25T07:12:08.881Z,98.28
2022-12-25T07:13:08.906Z,98.28
2022-12-25T07:14:08.865Z,98.28
2022-12-25T07:15:08.847Z,98.28
2022-12-25T07:16:08.841Z,98.28
2022-12-25T07:17:08.833Z,98.28
2022-12-25T07:18:08.807Z,98.28
2022-12-25T07:19:08.841Z,98.28
2022-12-25T07:20:08.805Z,98.28
2022-12-25T07:21:08.761Z,98.28
2022-12-25T07:22:08.755Z,98.28
2022-12-25T07:23:08.753Z,98.28
2022-12-25T07:24:08.759Z,98.28
2022-12-25T07:25:08.723Z,98.28
2022-12-25T07:26:08.703Z,98.28
2022-12-25T07:27:08.696Z,98.28
2022-12-25T07:28:08.687Z,98.28
2022-12-25T07:29:08.684Z,98.28
2022-12-25T07:30:08.667Z,98.28
2022-12-25T07:31:08.632Z,98.28
2022-12-25T07:32:08.679Z,98.28
2022-12-25T07:33:08.614Z,98.28
2022-12-25T07:34:08.637Z,98.28
2022-12-25T07:35:08.584Z,98.28
2022-12-25T07:36:12.453Z,98.28
2022-12-25T07:37:08.559Z,98.23
2022-12-25T07:38:08.557Z,98.28
2022-12-25T07:39:08.565Z,98.23
2022-12-25T07:40:08.551Z,98.23
2022-12-25T07:41:08.580Z,98.23
2022-12-25T07:42:08.497Z,98.23
2022-12-25T07:43:08.494Z,98.23
2022-12-25T07:44:08.501Z,98.23
2022-12-25T07:45:08.453Z,98.23
2022-12-25T07:46:08.554Z,98.23
2022-12-25T07:47:08.480Z,98.13
2022-12-25T07:48:13.355Z,98.13
2022-12-25T07:49:09.425Z,98.13
2022-12-25T07:50:08.410Z,98.13
2022-12-25T07:51:08.419Z,98.13
2022-12-25T07:52:08.379Z,98.13
2022-12-25T07:53:08.377Z,98.13
2022-12-25T07:54:08.356Z,98.13
2022-12-25T07:55:08.337Z,98.13
2022-12-25T07:56:08.346Z,98.13
2022-12-25T07:57:08.303Z,98.13
2022-12-25T07:58:08.306Z,98.13
2022-12-25T07:59:08.299Z,98.13
2022-12-25T08:00:08.279Z,98.13
2022-12-25T08:01:08.398Z,98.23
2022-12-25T08:02:08.423Z,98.23
2022-12-25T08:03:08.507Z,98.13
2022-12-25T08:04:08.409Z,98.23
2022-12-25T08:05:08.247Z,98.23
2022-12-25T08:06:08.220Z,98.23
2022-12-25T08:07:08.191Z,98.23
2022-12-25T08:08:08.167Z,98.23
2022-12-25T08:09:08.176Z,98.23
2022-12-25T08:10:08.182Z,98.19
2022-12-25T08:11:08.191Z,98.19
2022-12-25T08:12:08.185Z,98.19
2022-12-25T08:13:14.239Z,98.19
2022-12-25T08:14:09.166Z,98.19
2022-12-25T08:15:08.077Z,98.19
2022-12-25T08:16:08.112Z,98.19
2022-12-25T08:17:08.123Z,98.19
2022-12-25T08:18:08.037Z,98.19
2022-12-25T08:19:08.066Z,98.19
2022-12-25T08:20:08.042Z,98.19
2022-12-25T08:21:08.015Z,98.14
2022-12-25T08:22:08.003Z,98.14
2022-12-25T08:23:07.990Z,98.14
2022-12-25T08:24:07.984Z,98.14
2022-12-25T08:25:07.970Z,98.03
2022-12-25T08:26:07.950Z,98.03
2022-12-25T08:27:07.936Z,98.03
2022-12-25T08:28:07.965Z,98.03
2022-12-25T08:29:07.977Z,98.03
2022-12-25T08:30:07.911Z,97.99
2022-12-25T08:31:07.970Z,97.99
2022-12-25T08:32:07.894Z,97.89
2022-12-25T08:33:07.852Z,97.89
2022-12-25T08:34:07.869Z,97.99
2022-12-25T08:35:07.859Z,97.89
2022-12-25T08:36:07.818Z,97.89
2022-12-25T08:37:07.850Z,97.78
2022-12-25T08:38:07.779Z,97.78
2022-12-25T08:39:07.818Z,97.78
2022-12-25T08:40:07.809Z,97.78
2022-12-25T08:41:07.769Z,97.74
2022-12-25T08:42:07.766Z,97.64
2022-12-25T08:43:07.763Z,97.64
2022-12-25T08:44:07.715Z,97.64
2022-12-25T08:45:07.716Z,97.64
2022-12-25T08:46:07.761Z,97.64
2022-12-25T08:47:07.705Z,97.53
2022-12-25T08:48:07.638Z,97.53
2022-12-25T08:49:07.653Z,97.43
2022-12-25T08:50:07.679Z,97.43
2022-12-25T08:51:07.660Z,97.43
2022-12-25T08:52:07.626Z,97.39
2022-12-25T08:53:07.610Z,97.39
2022-12-25T08:54:07.581Z,97.39
2022-12-25T08:55:07.593Z,97.39
2022-12-25T08:56:07.579Z,97.39
2022-12-25T08:57:07.562Z,97.39
2022-12-25T08:58:07.561Z,97.39
2022-12-25T08:59:07.525Z,97.34
2022-12-25T09:00:07.523Z,97.24
2022-12-25T09:01:07.536Z,97.24
2022-12-25T09:02:07.614Z,97.34
2022-12-25T09:03:07.564Z,97.34
2022-12-25T09:04:07.451Z,97.34
2022-12-25T09:05:07.453Z,97.24
2022-12-25T09:06:07.454Z,97.24
2022-12-25T09:07:07.430Z,97.14
2022-12-25T09:08:07.522Z,97.14
2022-12-25T09:09:07.381Z,97.09
2022-12-25T09:10:07.446Z,96.99
2022-12-25T09:11:07.362Z,96.89
2022-12-25T09:12:07.388Z,96.89
2022-12-25T09:13:07.394Z,96.78
2022-12-25T09:14:07.313Z,96.73
2022-12-25T09:15:07.332Z,96.64
2022-12-25T09:16:07.339Z,96.64
2022-12-25T09:17:07.337Z,96.64
2022-12-25T09:18:07.272Z,96.53
2022-12-25T09:19:07.328Z,96.53
2022-12-25T09:20:07.244Z,96.39
2022-12-25T09:21:07.244Z,96.28
2022-12-25T09:22:07.251Z,96.18
2022-12-25T09:23:13.223Z,96.18
2022-12-25T09:24:08.194Z,96.08
2022-12-25T09:25:07.216Z,96.08
2022-12-25T09:26:07.181Z,96.08
2022-12-25T09:27:07.175Z,95.97
2022-12-25T09:28:07.187Z,95.83
2022-12-25T09:29:07.127Z,95.83
2022-12-25T09:30:07.162Z,95.72
2022-12-25T09:31:07.153Z,95.72
2022-12-25T09:32:07.108Z,95.57
2022-12-25T09:33:07.111Z,95.57
2022-12-25T09:34:07.091Z,95.47
2022-12-25T09:35:07.056Z,95.23
2022-12-25T09:36:07.062Z,95.02
2022-12-25T09:37:07.025Z,95.02
2022-12-25T09:38:07.005Z,95.02
2022-12-25T09:39:07.005Z,94.81
2022-12-25T09:40:06.980Z,94.81
2022-12-25T09:41:06.960Z,94.81
2022-12-25T09:42:06.955Z,94.51
2022-12-25T09:43:06.940Z,94.30
2022-12-25T09:44:06.925Z,94.10
2022-12-25T09:45:06.948Z,94.10
2022-12-25T09:46:06.934Z,94.15
2022-12-25T09:47:06.921Z,93.95
2022-12-25T10:03:50.608Z,92.57
2022-12-25T10:04:50.542Z,92.78
2022-12-25T10:05:50.542Z,92.27
2022-12-25T10:06:50.541Z,92.32
2022-12-25T10:07:50.494Z,92.32
2022-12-25T10:08:50.506Z,92.32
2022-12-25T10:09:50.492Z,92.02
2022-12-25T10:10:50.478Z,91.67
2022-12-25T10:11:50.487Z,91.77
2022-12-25T10:12:50.483Z,91.26
2022-12-25T10:13:50.417Z,91.05
2022-12-25T10:14:50.422Z,91.16
2022-12-25T10:15:50.452Z,90.81
2022-12-25T10:16:50.402Z,90.70
2022-12-25T10:17:50.374Z,90.66
2022-12-25T10:18:50.367Z,90.41
2022-12-25T10:19:50.357Z,90.00
2022-12-25T10:20:50.371Z,89.04
2022-12-25T10:21:50.345Z,88.45
2022-12-25T10:22:50.358Z,86.73
2022-12-25T10:23:50.295Z,85.08
2022-12-25T10:24:50.318Z,82.66
2022-12-25T10:25:50.302Z,79.70
2022-12-25T10:26:50.275Z,76.68
2022-12-25T10:27:50.334Z,75.76
2022-12-25T10:28:50.256Z,73.90
2022-12-25T10:29:50.227Z,73.25
2022-12-25T10:30:50.266Z,72.75
2022-12-25T10:31:50.193Z,72.61
2022-12-25T10:32:50.217Z,72.72
2022-12-25T10:33:50.185Z,71.64
2022-12-25T10:34:50.226Z,72.38
2022-12-25T10:35:50.163Z,72.75
2022-12-25T10:36:50.160Z,72.68
2022-12-25T10:37:50.150Z,73.09
2022-12-25T10:38:50.108Z,71.73
2022-12-25T10:39:50.180Z,73.06
2022-12-25T10:40:50.077Z,73.39
2022-12-25T10:41:50.086Z,74.51
2022-12-25T10:42:50.047Z,74.85
2022-12-25T10:43:50.056Z,74.34
2022-12-25T10:44:50.035Z,74.41
2022-12-25T10:45:50.027Z,74.62
2022-12-25T10:46:50.069Z,73.80
2022-12-25T10:47:57.140Z,73.29
2022-12-25T10:48:50.990Z,74.24
2022-12-25T10:49:49.958Z,74.14
2022-12-25T10:50:49.940Z,75.19
2022-12-25T10:51:49.959Z,75.09
2022-12-25T10:52:49.919Z,75.05
2022-12-25T10:53:49.910Z,74.21
2022-12-25T10:54:49.914Z,73.94
2022-12-25T10:55:49.894Z,74.24
2022-12-25T10:56:49.890Z,74.68
2022-12-25T10:57:49.863Z,74.82
2022-12-25T10:58:49.849Z,75.77
2022-12-25T10:59:49.841Z,76.96
2022-12-25T11:00:49.831Z,77.57
2022-12-25T11:01:54.892Z,78.02
2022-12-25T11:02:51.034Z,78.73
2022-12-25T11:03:49.847Z,79.24
2022-12-25T11:04:49.768Z,79.03
2022-12-25T11:05:49.784Z,79.07
2022-12-25T11:06:49.776Z,80.29
2022-12-25T11:07:49.735Z,79.82
2022-12-25T11:08:49.723Z,80.47
2022-12-25T11:09:49.724Z,81.39
2022-12-25T11:10:49.730Z,81.70
2022-12-25T11:11:49.725Z,81.90
2022-12-25T11:12:49.696Z,81.90
2022-12-25T11:13:49.666Z,81.90
2022-12-25T11:14:49.645Z,82.21
2022-12-25T11:15:49.711Z,82.21
2022-12-25T11:16:49.624Z,81.70
2022-12-25T11:17:49.658Z,81.80
2022-12-25T11:18:49.585Z,81.84
2022-12-25T11:19:49.586Z,82.14
2022-12-25T11:20:49.587Z,83.06
2022-12-25T11:21:49.563Z,83.37
2022-12-25T11:22:49.539Z,83.57
2022-12-25T11:23:49.545Z,83.26
2022-12-25T11:24:49.513Z,83.26
2022-12-25T11:25:49.586Z,83.53
2022-12-25T11:26:49.523Z,83.43
2022-12-25T11:27:53.517Z,82.19
2022-12-25T11:28:49.466Z,80.65
2022-12-25T11:29:49.464Z,79.05
2022-12-25T11:30:49.428Z,77.12
2022-12-25T11:31:49.614Z,77.22
2022-12-25T11:32:49.410Z,77.02
2022-12-25T11:33:49.410Z,76.95
2022-12-25T11:34:49.401Z,77.47
2022-12-25T11:35:49.377Z,77.70
2022-12-25T11:36:49.377Z,77.70
2022-12-25T11:37:49.366Z,78.52
2022-12-25T11:38:49.357Z,78.52
2022-12-25T11:39:49.318Z,78.92
2022-12-25T11:40:49.309Z,78.41
2022-12-25T11:41:49.324Z,78.72
2022-12-25T11:42:49.290Z,78.31
2022-12-25T11:43:49.280Z,78.17
2022-12-25T11:44:49.252Z,78.58
2022-12-25T11:45:49.255Z,77.87
2022-12-25T11:46:49.281Z,77.63
2022-12-25T11:47:49.239Z,77.26
2022-12-25T11:48:49.209Z,77.97
2022-12-25T11:49:50.594Z,78.17
2022-12-25T11:50:49.187Z,77.87
2022-12-25T11:51:49.201Z,77.67
2022-12-25T11:52:49.162Z,77.53
2022-12-25T11:53:49.137Z,77.09
2022-12-25T11:54:49.119Z,76.34
2022-12-25T11:55:49.120Z,76.44
2022-12-25T11:56:49.129Z,76.40
2022-12-25T11:57:49.090Z,76.10
2022-12-25T11:58:49.071Z,74.88
2022-12-25T11:59:49.073Z,75.19
2022-12-25T12:00:49.051Z,75.39
2022-12-25T12:01:49.128Z,75.19
2022-12-25T12:02:49.129Z,75.39
2022-12-25T12:03:49.132Z,75.39
2022-12-25T12:04:49.013Z,75.29
2022-12-25T12:05:48.993Z,75.29
2022-12-25T12:06:48.983Z,75.39
2022-12-25T12:07:48.974Z,75.32
2022-12-25T12:08:48.968Z,76.14
2022-12-25T12:09:48.978Z,75.43
2022-12-25T12:10:48.937Z,75.93
2022-12-25T12:11:49.006Z,76.07
2022-12-25T12:12:49.352Z,76.64
2022-12-25T12:13:48.912Z,76.34
2022-12-25T12:14:48.916Z,75.46
2022-12-25T12:15:48.866Z,75.80
2022-12-25T12:16:48.919Z,76.61
2022-12-25T12:17:48.856Z,77.12
2022-12-25T12:18:50.735Z,76.92
2022-12-25T12:19:48.840Z,77.77
2022-12-25T12:20:48.791Z,77.77
2022-12-25T12:21:48.799Z,78.11
2022-12-25T12:22:48.789Z,78.62
2022-12-25T12:23:48.765Z,78.66
2022-12-25T12:24:48.769Z,79.57
2022-12-25T12:25:48.752Z,80.02
2022-12-25T12:26:48.723Z,80.73
2022-12-25T12:27:48.723Z,79.91
2022-12-25T12:28:48.705Z,80.22
2022-12-25T12:29:48.725Z,79.47
2022-12-25T12:30:48.659Z,79.43
2022-12-25T12:31:48.762Z,79.02
2022-12-25T12:32:48.658Z,78.72
2022-12-25T12:33:48.643Z,78.31
2022-12-25T12:34:48.643Z,78.89
2022-12-25T12:35:48.602Z,78.89
2022-12-25T12:36:48.590Z,78.85
2022-12-25T12:37:48.595Z,78.75
2022-12-25T12:38:48.575Z,77.94
2022-12-25T12:39:48.551Z,78.04
2022-12-25T12:40:48.528Z,78.44
2022-12-25T12:41:48.542Z,78.00
2022-12-25T12:42:48.517Z,76.75
2022-12-25T12:43:48.529Z,75.90
2022-12-25T12:44:48.493Z,75.90
2022-12-25T12:45:48.512Z,75.15
2022-12-25T12:46:48.461Z,75.46
2022-12-25T12:47:48.485Z,75.46
2022-12-25T12:48:48.468Z,75.19
2022-12-25T12:49:48.443Z,75.09
2022-12-25T12:50:48.413Z,75.63
2022-12-25T12:51:48.405Z,76.58
2022-12-25T12:52:48.375Z,76.58
2022-12-25T12:53:48.393Z,76.92
2022-12-25T12:54:48.409Z,77.47
2022-12-25T12:55:48.415Z,78.08
2022-12-25T12:56:48.324Z,78.38
2022-12-25T12:57:48.330Z,78.44
2022-12-25T12:58:48.355Z,78.14
2022-12-25T12:59:48.325Z,77.63
2022-12-25T13:00:48.345Z,76.88
2022-12-25T13:01:48.383Z,77.59
2022-12-25T13:02:48.421Z,77.39
2022-12-25T13:03:48.260Z,77.70
2022-12-25T13:04:48.243Z,77.63
2022-12-25T13:05:48.227Z,77.94
2022-12-25T13:06:48.190Z,78.28
2022-12-25T13:07:48.190Z,78.08
2022-12-25T13:08:48.183Z,78.68
2022-12-25T13:09:48.207Z,78.38
2022-12-25T13:10:48.140Z,78.52
2022-12-25T13:11:48.154Z,78.92
2022-12-25T13:12:48.107Z,79.53
2022-12-25T13:13:48.108Z,80.08
2022-12-25T13:14:48.126Z,80.18
2022-12-25T13:15:48.080Z,79.88
2022-12-25T13:16:48.100Z,80.08
2022-12-25T13:17:48.104Z,80.42
2022-12-25T13:18:48.029Z,80.63
2022-12-25T13:19:48.101Z,81.17
2022-12-25T13:20:48.020Z,81.68
2022-12-25T13:21:48.020Z,81.99
2022-12-25T13:22:52.762Z,81.99